Time;durP1;ratioP1;P1;durP2;ratioP2;P2;SDS_P1;SDS_P2;PMS_P1;PMS_P2;Temp;Humidity;BMP_temperature;BMP_pressure;BME280_temperature;BME280_humidity;BME280_pressure;Samples;Min_cycle;Max_cycle;Signal;HPM_P1;HPM_P2
2021/05/29 00:01:16;;;;;;;20.08;11.35;;;;;;;9.28;100.00;98384.13;4989702;28;20042;-75
2021/05/29 00:03:43;;;;;;;17.83;11.32;;;;;;;9.33;100.00;98404.88;4989179;28;20046;-78
2021/05/29 00:06:10;;;;;;;15.40;11.10;;;;;;;9.28;100.00;98402.22;4989313;28;20052;-76
2021/05/29 00:08:36;;;;;;;20.40;10.98;;;;;;;9.26;100.00;98389.03;4988025;28;20061;-76
2021/05/29 00:11:03;;;;;;;20.60;11.68;;;;;;;9.24;100.00;98402.00;4989994;28;20053;-76
2021/05/29 00:13:31;;;;;;;18.50;11.07;;;;;;;9.23;100.00;98394.19;4989936;28;20255;-78
2021/05/29 00:15:58;;;;;;;17.70;10.57;;;;;;;9.24;100.00;98401.19;4988806;28;20055;-77
2021/05/29 00:18:25;;;;;;;15.93;10.30;;;;;;;9.20;100.00;98392.06;4991721;28;20046;-79
2021/05/29 00:20:53;;;;;;;15.93;9.80;;;;;;;9.22;100.00;98400.66;4989646;28;20054;-77
2021/05/29 00:23:20;;;;;;;17.58;10.63;;;;;;;9.20;100.00;98398.25;4988524;28;20095;-78
2021/05/29 00:25:47;;;;;;;20.40;11.35;;;;;;;9.24;100.00;98398.47;4990165;28;20084;-76
2021/05/29 00:28:14;;;;;;;19.70;10.40;;;;;;;9.21;100.00;98399.06;4990619;28;20068;-76
2021/05/29 00:30:45;;;;;;;17.30;10.23;;;;;;;9.17;100.00;98390.72;4991516;28;20131;-76
2021/05/29 00:33:12;;;;;;;19.73;10.85;;;;;;;9.16;100.00;98391.03;4988467;28;20050;-77
2021/05/29 00:35:39;;;;;;;20.00;11.80;;;;;;;9.13;100.00;98387.00;4988818;28;20050;-77
2021/05/29 00:38:06;;;;;;;23.67;12.32;;;;;;;8.99;100.00;98388.75;4990612;28;20140;-77
2021/05/29 00:40:34;;;;;;;19.00;11.77;;;;;;;8.99;100.00;98387.94;4988829;28;20046;-76
2021/05/29 00:43:01;;;;;;;19.60;12.40;;;;;;;8.92;100.00;98387.50;4987869;28;20043;-79
2021/05/29 00:45:28;;;;;;;22.20;14.13;;;;;;;8.94;100.00;98388.81;4989031;28;20383;-76
2021/05/29 00:47:56;;;;;;;23.65;14.23;;;;;;;8.90;100.00;98386.97;4990659;28;20299;-76
2021/05/29 00:50:23;;;;;;;21.85;14.75;;;;;;;8.86;100.00;98384.03;4990457;28;20096;-78
2021/05/29 00:52:50;;;;;;;24.92;15.27;;;;;;;8.82;100.00;98380.31;4990213;28;20129;-77
2021/05/29 00:55:17;;;;;;;27.20;15.75;;;;;;;8.73;100.00;98382.00;4989536;28;20061;-77
2021/05/29 00:57:48;;;;;;;25.77;14.27;;;;;;;8.66;100.00;98376.94;4988279;28;20042;-77
2021/05/29 01:00:18;;;;;;;20.38;13.52;;;;;;;8.64;100.00;98381.00;4988143;28;20047;-77
2021/05/29 01:02:49;;;;;;;28.05;14.82;;;;;;;8.58;100.00;98374.84;4971314;28;20039;-78
2021/05/29 01:05:18;;;;;;;30.75;15.32;;;;;;;8.52;100.00;98369.75;4988445;28;20046;-76
2021/05/29 01:07:50;;;;;;;21.75;13.73;;;;;;;8.56;100.00;98371.63;4987946;28;20290;-77
2021/05/29 01:10:18;;;;;;;27.30;14.95;;;;;;;8.50;100.00;98374.66;4989223;28;20042;-76
2021/05/29 01:12:45;;;;;;;24.80;13.68;;;;;;;8.42;100.00;98372.56;4988651;28;20057;-76
2021/05/29 01:15:13;;;;;;;25.90;14.82;;;;;;;8.45;100.00;98380.09;4987748;28;20119;-76
2021/05/29 01:17:42;;;;;;;22.90;13.38;;;;;;;8.38;100.00;98377.72;4988310;28;20543;-75
2021/05/29 01:20:10;;;;;;;29.40;15.55;;;;;;;8.23;100.00;98369.72;4989279;28;20042;-78
2021/05/29 01:22:46;;;;;;;29.10;16.58;;;;;;;8.18;100.00;98369.78;4989833;28;20050;-74
2021/05/29 01:25:30;;;;;;;29.50;16.88;;;;;;;8.06;100.00;98370.09;4988714;28;20051;-78
2021/05/29 01:28:10;;;;;;;34.63;17.48;;;;;;;7.99;100.00;98356.16;4987596;28;20516;-77
2021/05/29 01:30:50;;;;;;;30.15;16.38;;;;;;;7.96;100.00;98370.19;4992246;28;20046;-77
2021/05/29 01:33:18;;;;;;;27.77;15.45;;;;;;;7.74;100.00;98356.31;4993535;28;20042;-76
2021/05/29 01:35:45;;;;;;;28.08;14.60;;;;;;;7.70;100.00;98367.91;4995882;28;20056;-76
2021/05/29 01:38:15;;;;;;;30.45;16.83;;;;;;;7.70;100.00;98362.50;4993874;28;20544;-77
2021/05/29 01:40:42;;;;;;;32.42;17.25;;;;;;;7.69;100.00;98369.78;4993503;28;20083;-77
2021/05/29 01:43:10;;;;;;;34.75;17.73;;;;;;;7.67;100.00;98371.16;4992713;28;20149;-76
2021/05/29 01:45:38;;;;;;;31.95;18.30;;;;;;;7.62;100.00;98369.28;4989806;28;20394;-78
2021/05/29 01:48:06;;;;;;;40.10;19.23;;;;;;;7.61;100.00;98377.66;4991414;28;20076;-77
2021/05/29 01:50:33;;;;;;;35.15;18.10;;;;;;;7.64;100.00;98379.81;4991135;28;20046;-77
2021/05/29 01:53:04;;;;;;;31.67;17.67;;;;;;;7.70;100.00;98387.59;4990883;28;20042;-77
2021/05/29 01:55:32;;;;;;;41.28;19.90;;;;;;;7.58;100.00;98383.59;4991300;28;20046;-77
2021/05/29 01:58:00;;;;;;;37.03;19.10;;;;;;;7.55;100.00;98393.06;4991842;28;20410;-77
2021/05/29 02:00:29;;;;;;;42.72;20.65;;;;;;;7.46;100.00;98392.81;4992468;28;20607;-77
2021/05/29 02:02:57;;;;;;;30.73;16.50;;;;;;;7.46;100.00;98392.81;4991007;28;20520;-77
2021/05/29 02:05:27;;;;;;;28.13;15.02;;;;;;;7.37;100.00;98378.31;4987864;28;20099;-76
2021/05/29 02:07:54;;;;;;;22.60;13.98;;;;;;;7.40;100.00;98388.53;4990571;28;20440;-74
2021/05/29 02:10:26;;;;;;;24.55;13.57;;;;;;;7.30;100.00;98371.63;4988974;28;20050;-76
2021/05/29 02:12:56;;;;;;;23.25;13.40;;;;;;;7.31;100.00;98400.13;4987925;28;20054;-75
2021/05/29 02:15:29;;;;;;;28.75;14.23;;;;;;;7.25;100.00;98385.88;4986650;28;20058;-78
2021/05/29 02:17:57;;;;;;;27.33;15.13;;;;;;;7.19;100.00;98392.38;4988397;28;20050;-77
2021/05/29 02:20:44;;;;;;;23.73;14.38;;;;;;;7.08;100.00;98396.19;4987461;28;20378;-76
2021/05/29 02:23:13;;;;;;;26.98;15.05;;;;;;;6.93;100.00;98409.69;4988807;28;20046;-78
2021/05/29 02:25:42;;;;;;;25.15;13.60;;;;;;;6.75;100.00;98399.47;4987292;28;20055;-78
2021/05/29 02:28:09;;;;;;;27.17;13.98;;;;;;;6.83;100.00;98404.31;4987843;28;20677;-77
2021/05/29 02:30:36;;;;;;;35.92;17.75;;;;;;;6.85;100.00;98405.66;4987742;28;20463;-77
2021/05/29 02:33:05;;;;;;;36.25;18.02;;;;;;;6.74;100.00;98398.66;4987872;28;20288;-78
2021/05/29 02:35:32;;;;;;;27.13;15.80;;;;;;;6.70;100.00;98412.94;4987950;28;20080;-78
2021/05/29 02:37:58;;;;;;;29.98;15.23;;;;;;;6.58;100.00;98418.59;4988304;28;20053;-77
2021/05/29 02:40:25;;;;;;;33.63;16.13;;;;;;;6.51;100.00;98414.56;4987728;28;20049;-77
2021/05/29 02:42:54;;;;;;;34.40;17.13;;;;;;;6.54;100.00;98411.31;4987488;28;20062;-75
2021/05/29 02:45:21;;;;;;;45.53;21.05;;;;;;;6.64;100.00;98422.06;4987948;28;20061;-76
2021/05/29 02:47:48;;;;;;;43.30;21.10;;;;;;;6.88;100.00;98421.25;4989460;28;20099;-77
2021/05/29 02:50:15;;;;;;;41.00;22.35;;;;;;;7.12;100.00;98418.81;4989215;28;20528;-76
2021/05/29 02:52:42;;;;;;;52.85;23.73;;;;;;;7.27;100.00;98426.03;4986471;28;20057;-78
2021/05/29 02:55:15;;;;;;;56.50;23.85;;;;;;;7.32;100.00;98415.22;4986749;28;20189;-78
2021/05/29 02:57:42;;;;;;;40.90;21.23;;;;;;;7.36;100.00;98422.47;5003588;22;20030;-82
2021/05/29 03:00:10;;;;;;;43.38;21.27;;;;;;;7.53;100.00;98430.25;4997699;28;20092;-85
2021/05/29 03:02:39;;;;;;;44.80;22.85;;;;;;;7.51;100.00;98419.72;5015578;28;20050;-85
2021/05/29 03:05:12;;;;;;;42.92;22.10;;;;;;;7.65;100.00;98417.25;4998779;28;20212;-85
2021/05/29 03:07:41;;;;;;;47.28;23.20;;;;;;;7.78;100.00;98430.13;4999507;28;20045;-85
2021/05/29 03:10:09;;;;;;;46.65;23.52;;;;;;;7.84;100.00;98420.13;5034702;28;20075;-82
2021/05/29 03:12:50;;;;;;;41.85;22.98;;;;;;;7.85;100.00;98427.13;4998341;28;20064;-82
2021/05/29 03:15:19;;;;;;;52.13;25.23;;;;;;;7.98;100.00;98438.09;5031510;28;20140;-83
2021/05/29 03:17:46;;;;;;;45.50;24.75;;;;;;;7.84;100.00;98407.47;5002087;28;20049;-82
2021/05/29 03:20:24;;;;;;;47.85;26.27;;;;;;;8.13;100.00;98439.91;5018208;28;20099;-83
2021/05/29 03:22:54;;;;;;;48.72;24.90;;;;;;;7.99;100.00;98417.34;4999685;28;20306;-83
2021/05/29 03:25:27;;;;;;;45.53;24.23;;;;;;;8.13;100.00;98423.72;5014973;28;20068;-83
2021/05/29 03:27:54;;;;;;;47.30;24.75;;;;;;;8.24;100.00;98430.66;4997897;28;20065;-83
2021/05/29 03:30:24;;;;;;;45.63;24.20;;;;;;;8.28;100.00;98420.16;5000061;28;20507;-83
2021/05/29 03:32:51;;;;;;;46.63;23.60;;;;;;;8.27;100.00;98418.53;5017808;28;20076;-84
2021/05/29 03:35:19;;;;;;;38.70;22.23;;;;;;;8.31;100.00;98422.31;5034786;28;20056;-83
2021/05/29 03:37:46;;;;;;;41.97;22.45;;;;;;;8.33;100.00;98415.53;5001639;28;20050;-83
2021/05/29 03:40:14;;;;;;;36.90;21.95;;;;;;;8.34;100.00;98436.00;5001924;28;20046;-82
2021/05/29 03:42:42;;;;;;;35.30;19.73;;;;;;;8.38;100.00;98420.91;5017305;28;20220;-83
2021/05/29 03:45:12;;;;;;;36.75;19.27;;;;;;;8.38;100.00;98434.38;5043070;28;20064;-82
2021/05/29 03:47:40;;;;;;;35.63;19.67;;;;;;;8.31;100.00;98415.00;5042599;28;20131;-83
2021/05/29 03:50:07;;;;;;;33.45;19.25;;;;;;;8.33;100.00;98417.44;5002676;28;20097;-83
2021/05/29 03:52:34;;;;;;;36.15;20.33;;;;;;;8.36;100.00;98422.25;5017504;28;20493;-83
2021/05/29 03:55:03;;;;;;;34.75;20.05;;;;;;;8.50;100.00;98444.81;5016962;28;20133;-83
2021/05/29 03:57:32;;;;;;;35.10;19.30;;;;;;;8.50;100.00;98425.91;5040682;28;20065;-83
2021/05/29 03:59:59;;;;;;;27.92;17.73;;;;;;;8.64;100.00;98437.69;5036563;28;20103;-83
2021/05/29 04:02:26;;;;;;;32.95;18.10;;;;;;;8.58;100.00;98442.31;5038806;28;20045;-82
2021/05/29 04:04:53;;;;;;;26.55;16.13;;;;;;;8.59;100.00;98426.94;5018544;28;20060;-82
2021/05/29 04:07:30;;;;;;;28.55;17.08;;;;;;;8.65;100.00;98440.09;5023988;28;20038;-82
2021/05/29 04:09:57;;;;;;;30.80;16.52;;;;;;;8.65;100.00;98429.31;5017220;28;20061;-83
2021/05/29 04:12:23;;;;;;;27.90;17.10;;;;;;;8.82;100.00;98433.50;5017764;28;20051;-82
2021/05/29 04:14:50;;;;;;;26.98;16.73;;;;;;;9.18;100.00;98438.28;5034686;28;20042;-83
2021/05/29 04:17:17;;;;;;;26.27;15.55;;;;;;;9.12;100.00;98436.72;5017500;28;20042;-83
2021/05/29 04:19:44;;;;;;;23.77;14.73;;;;;;;9.05;100.00;98440.84;5015982;28;20055;-82
2021/05/29 04:22:10;;;;;;;20.48;14.25;;;;;;;9.05;100.00;98440.84;5020599;28;20042;-82
2021/05/29 04:24:40;;;;;;;26.58;14.10;;;;;;;9.01;100.00;98442.47;5040229;28;20563;-83
2021/05/29 04:27:14;;;;;;;23.30;14.82;;;;;;;8.95;100.00;98440.94;5019758;28;20112;-83
2021/05/29 04:29:41;;;;;;;20.45;14.40;;;;;;;8.82;100.00;98433.50;5029527;28;20046;-82
2021/05/29 04:32:07;;;;;;;26.05;14.40;;;;;;;8.96;100.00;98437.94;5002121;28;20054;-82
2021/05/29 04:34:37;;;;;;;24.42;15.35;;;;;;;8.98;100.00;98433.06;5000777;28;20053;-83
2021/05/29 04:37:16;;;;;;;24.45;15.20;;;;;;;9.00;100.00;98446.28;5017487;28;20056;-83
2021/05/29 04:39:44;;;;;;;20.45;14.52;;;;;;;8.77;100.00;98428.94;5033252;28;20147;-82
2021/05/29 04:42:13;;;;;;;22.00;14.75;;;;;;;8.87;100.00;98452.34;5008256;28;20029;-82
2021/05/29 04:44:43;;;;;;;23.23;15.20;;;;;;;8.81;100.00;98456.16;5011047;28;20045;-83
2021/05/29 04:47:10;;;;;;;22.95;14.85;;;;;;;8.91;100.00;98469.56;5016980;28;20373;-83
2021/05/29 04:49:37;;;;;;;21.90;14.85;;;;;;;8.84;100.00;98463.72;5000172;28;20045;-83
2021/05/29 04:52:04;;;;;;;24.75;15.45;;;;;;;8.73;100.00;98450.28;5018145;28;20059;-85
2021/05/29 04:54:31;;;;;;;26.02;16.15;;;;;;;8.82;100.00;98460.50;5016939;28;20046;-84
2021/05/29 04:56:59;;;;;;;25.98;15.18;;;;;;;8.73;100.00;98449.47;4999902;28;20114;-83
2021/05/29 04:59:33;;;;;;;22.65;14.93;;;;;;;8.75;100.00;98469.72;5002567;28;20072;-84
2021/05/29 05:01:59;;;;;;;27.73;16.30;;;;;;;8.72;100.00;98464.88;5018344;28;20049;-84
2021/05/29 05:04:29;;;;;;;24.67;15.52;;;;;;;8.74;100.00;98462.72;5017999;28;20140;-84
2021/05/29 05:06:56;;;;;;;22.67;14.88;;;;;;;8.93;100.00;98456.63;5017704;28;20060;-84
2021/05/29 05:09:23;;;;;;;21.50;14.52;;;;;;;8.87;100.00;98445.06;5001136;28;20045;-83
2021/05/29 05:11:50;;;;;;;20.08;14.00;;;;;;;9.13;100.00;98469.94;5017114;28;20470;-83
2021/05/29 05:14:18;;;;;;;21.73;14.90;;;;;;;9.17;100.00;98442.06;5019229;28;20041;-84
2021/05/29 05:16:56;;;;;;;23.02;13.68;;;;;;;9.26;100.00;98448.47;5003810;28;20041;-82
2021/05/29 05:19:23;;;;;;;22.00;13.55;;;;;;;9.40;100.00;98451.25;5018758;28;20086;-85
2021/05/29 05:21:49;;;;;;;17.00;11.88;;;;;;;9.32;100.00;98452.69;5039014;28;20472;-82
2021/05/29 05:24:16;;;;;;;19.60;11.85;;;;;;;9.29;100.00;98450.56;5039938;28;20045;-84
2021/05/29 05:26:43;;;;;;;19.10;12.75;;;;;;;9.17;100.00;98452.06;5023113;28;20049;-83
2021/05/29 05:29:10;;;;;;;19.38;11.80;;;;;;;9.09;100.00;98461.59;5024090;28;20080;-83
2021/05/29 05:31:39;;;;;;;18.60;12.32;;;;;;;9.13;100.00;98451.84;5044591;28;20538;-83
2021/05/29 05:34:09;;;;;;;16.05;11.45;;;;;;;9.31;100.00;98453.81;5038831;28;20127;-84
2021/05/29 05:36:38;;;;;;;21.42;12.10;;;;;;;9.37;100.00;98443.72;5038555;28;20271;-83
2021/05/29 05:39:08;;;;;;;18.42;11.80;;;;;;;9.34;100.00;98449.72;5020758;28;20049;-82
2021/05/29 05:41:37;;;;;;;17.38;11.70;;;;;;;9.35;100.00;98467.53;5056255;28;20130;-82
2021/05/29 05:44:08;;;;;;;17.13;10.63;;;;;;;9.20;100.00;98456.88;5054998;28;20037;-85
2021/05/29 05:46:45;;;;;;;17.02;10.43;;;;;;;9.30;100.00;98451.38;5024991;28;20071;-84
2021/05/29 05:49:13;;;;;;;15.13;10.27;;;;;;;9.51;100.00;98458.19;5033265;28;20055;-85
2021/05/29 05:51:40;;;;;;;14.00;9.82;;;;;;;9.71;100.00;98466.03;5024540;28;20102;-85
2021/05/29 05:54:07;;;;;;;14.40;10.38;;;;;;;9.70;100.00;98466.34;5020620;28;20456;-82
2021/05/29 05:56:34;;;;;;;16.45;10.48;;;;;;;9.95;100.00;98471.44;5038253;28;20044;-85
2021/05/29 05:59:01;;;;;;;14.18;10.32;;;;;;;9.91;100.00;98471.19;5021268;28;20454;-85
2021/05/29 06:01:28;;;;;;;14.27;9.98;;;;;;;9.85;100.00;98468.88;5021207;28;20052;-84
2021/05/29 06:03:55;;;;;;;14.07;9.20;;;;;;;9.79;100.00;98464.59;5040661;28;20075;-83
2021/05/29 06:06:30;;;;;;;15.07;9.73;;;;;;;9.71;100.00;98468.75;5059037;28;20051;-86
2021/05/29 06:09:15;;;;;;;15.93;9.27;;;;;;;9.79;100.00;98473.53;5037263;28;20037;-85
2021/05/29 06:11:43;;;;;;;14.82;9.40;;;;;;;9.97;100.00;98477.34;5021224;28;20386;-85
2021/05/29 06:19:26;;;;;;;16.13;9.57;;;;;;;9.79;100.00;98478.13;4997637;28;20077;-84
2021/05/29 06:21:55;;;;;;;13.50;9.38;;;;;;;9.89;100.00;98494.22;4997252;28;20084;-85
2021/05/29 06:24:28;;;;;;;13.95;8.68;;;;;;;10.15;100.00;98498.25;4981500;28;20070;-84
2021/05/29 06:26:56;;;;;;;10.52;7.43;;;;;;;10.28;100.00;98488.59;4979854;28;20053;-85
2021/05/29 06:29:46;;;;;;;11.13;7.40;;;;;;;9.82;100.00;98482.97;4982359;28;20112;-85
2021/05/29 06:32:15;;;;;;;12.23;8.02;;;;;;;9.75;100.00;98480.63;5000173;28;20137;-85
2021/05/29 06:35:17;;;;;;;11.48;7.47;;;;;;;9.80;100.00;98494.06;4999503;28;20485;-86
2021/05/29 06:39:22;;;;;;;11.13;7.32;;;;;;;10.07;100.00;98488.03;4991435;28;20061;-86
2021/05/29 06:42:08;;;;;;;12.38;7.10;;;;;;;10.14;100.00;98487.72;4976179;28;20073;-85
2021/05/29 06:45:01;;;;;;;12.60;8.23;;;;;;;10.08;100.00;98514.00;4983125;28;20073;-86
2021/05/29 06:47:53;;;;;;;11.73;8.10;;;;;;;10.07;100.00;98503.47;4943207;28;20054;-83
2021/05/29 06:50:33;;;;;;;15.38;8.32;;;;;;;10.08;100.00;98489.66;4987814;28;20509;-84
2021/05/29 06:53:13;;;;;;;11.73;7.93;;;;;;;10.23;100.00;98494.09;4998011;28;20049;-83
2021/05/29 06:58:52;;;;;;;10.73;7.07;;;;;;;10.93;100.00;98520.13;5019503;28;20037;-82
2021/05/29 07:01:27;;;;;;;12.55;7.75;;;;;;;10.94;100.00;98507.41;5018144;28;20543;-81
2021/05/29 07:03:55;;;;;;;13.98;7.97;;;;;;;11.14;100.00;98512.47;4999083;28;20049;-84
2021/05/29 07:06:57;;;;;;;13.55;7.53;;;;;;;11.56;100.00;98506.81;4999818;28;20038;-83
2021/05/29 07:09:27;;;;;;;13.30;7.75;;;;;;;11.86;100.00;98508.19;5029324;28;20072;-88
2021/05/29 07:12:04;;;;;;;15.27;7.50;;;;;;;11.82;100.00;98507.97;5011117;28;20045;-86
2021/05/29 07:14:34;;;;;;;12.88;7.25;;;;;;;11.86;100.00;98506.28;5021905;28;20037;-87
2021/05/29 07:17:32;;;;;;;13.02;7.78;;;;;;;11.71;100.00;98527.47;5008634;28;20419;-83
2021/05/29 07:20:45;;;;;;;16.05;6.75;;;;;;;11.77;100.00;98509.97;5008753;28;20057;-86
2021/05/29 07:26:51;;;;;;;10.18;6.68;;;;;;;12.35;100.00;98497.38;5004164;28;20452;-84
2021/05/29 07:29:17;;;;;;;10.27;6.75;;;;;;;12.46;100.00;98504.19;5030860;28;20107;-82
2021/05/29 07:31:45;;;;;;;14.07;6.97;;;;;;;12.67;100.00;98509.19;5021295;28;20049;-81
2021/05/29 07:34:13;;;;;;;11.57;6.90;;;;;;;13.04;100.00;98501.47;5026589;28;20175;-82
2021/05/29 07:36:41;;;;;;;11.25;6.60;;;;;;;13.09;100.00;98489.69;4999518;28;20397;-81
2021/05/29 07:39:20;;;;;;;8.93;6.22;;;;;;;13.05;100.00;98489.50;5017881;28;20072;-83
2021/05/29 07:41:50;;;;;;;13.60;6.72;;;;;;;13.40;100.00;98506.84;5003099;28;20045;-85
2021/05/29 07:44:37;;;;;;;11.98;6.68;;;;;;;13.18;100.00;98506.88;5000504;28;20053;-87
2021/05/29 07:47:09;;;;;;;11.48;6.57;;;;;;;13.16;100.00;98500.16;5002846;28;20072;-82
2021/05/29 07:49:42;;;;;;;10.20;6.80;;;;;;;12.97;100.00;98506.53;4999080;28;20108;-84
2021/05/29 07:52:19;;;;;;;11.30;6.93;;;;;;;12.71;100.00;98508.25;4998270;28;20104;-81
2021/05/29 07:54:53;;;;;;;13.00;7.07;;;;;;;12.42;100.00;98511.34;5031860;28;20042;-81
2021/05/29 07:57:23;;;;;;;10.68;6.35;;;;;;;12.44;100.00;98497.44;5000020;28;20050;-81
2021/05/29 08:00:04;;;;;;;12.50;7.50;;;;;;;12.16;100.00;98520.31;5034049;28;20713;-84
2021/05/29 08:02:31;;;;;;;13.57;7.38;;;;;;;11.82;100.00;98509.88;5019604;28;20056;-82
2021/05/29 08:04:58;;;;;;;12.98;7.38;;;;;;;12.33;100.00;98515.91;5035721;28;20397;-80
2021/05/29 08:08:18;;;;;;;16.58;7.43;;;;;;;12.63;100.00;98521.75;5019168;28;20111;-81
2021/05/29 08:10:50;;;;;;;16.05;7.45;;;;;;;12.72;100.00;98514.50;4909138;29;20086;-81
2021/05/29 08:13:17;;;;;;;14.23;7.63;;;;;;;12.44;100.00;98516.47;5028859;28;20053;-84
2021/05/29 08:15:47;;;;;;;13.65;6.95;;;;;;;12.71;100.00;98505.53;5018263;28;20062;-81
2021/05/29 08:18:20;;;;;;;14.50;7.43;;;;;;;13.23;100.00;98524.97;5037644;28;20052;-85
2021/05/29 08:20:58;;;;;;;13.85;6.68;;;;;;;13.19;100.00;98503.03;5012566;28;20041;-83
2021/05/29 08:23:37;;;;;;;13.50;6.68;;;;;;;13.69;100.00;98520.75;5011857;28;20136;-82
2021/05/29 08:26:05;;;;;;;12.20;6.88;;;;;;;13.52;100.00;98509.78;5033748;28;20044;-81
2021/05/29 08:28:35;;;;;;;12.05;7.07;;;;;;;13.87;100.00;98527.09;5040914;28;20060;-84
2021/05/29 08:31:08;;;;;;;14.45;7.65;;;;;;;13.89;100.00;98527.56;5012211;28;20111;-84
2021/05/29 08:33:35;;;;;;;13.07;6.95;;;;;;;13.46;100.00;98515.69;5000603;28;20336;-81
2021/05/29 08:36:02;;;;;;;13.93;6.93;;;;;;;13.55;100.00;98530.91;5034637;28;20049;-77
2021/05/29 08:38:29;;;;;;;15.43;6.95;;;;;;;13.62;100.00;98535.94;5032502;28;20053;-78
2021/05/29 08:40:55;;;;;;;12.73;6.43;;;;;;;13.44;100.00;98535.03;5030813;28;20045;-76
2021/05/29 08:43:22;;;;;;;18.38;7.50;;;;;;;13.31;100.00;98532.38;5027717;28;20063;-77
2021/05/29 08:45:49;;;;;;;14.77;7.35;;;;;;;13.07;100.00;98530.78;5024400;28;20049;-76
2021/05/29 08:48:16;;;;;;;16.55;7.60;;;;;;;13.01;100.00;98531.19;4993349;28;20045;-76
2021/05/29 08:53:30;;;;;;;16.50;8.95;;;;;;;12.76;100.00;98535.31;5033367;28;20053;-79
2021/05/29 08:55:59;;;;;;;14.65;7.93;;;;;;;12.72;100.00;98530.78;5015572;28;20049;-80
2021/05/29 08:58:30;;;;;;;15.57;8.80;;;;;;;12.69;100.00;98539.56;5021095;23;20032;-75
2021/05/29 09:01:00;;;;;;;16.27;8.68;;;;;;;12.57;100.00;98537.34;5035177;28;20042;-75
2021/05/29 09:03:48;;;;;;;15.82;8.88;;;;;;;12.64;100.00;98550.53;5035318;28;20588;-76
2021/05/29 09:06:40;;;;;;;20.05;8.65;;;;;;;12.62;100.00;98548.09;4969926;28;20059;-73
2021/05/29 09:09:13;;;;;;;18.15;7.78;;;;;;;12.88;100.00;98542.91;4969416;28;20063;-76
2021/05/29 09:11:48;;;;;;;21.33;9.02;;;;;;;13.17;100.00;98542.50;4966379;28;20051;-75
2021/05/29 09:14:21;;;;;;;19.15;9.27;;;;;;;13.67;100.00;98538.53;5031546;28;20490;-77
2021/05/29 09:17:10;;;;;;;13.25;7.35;;;;;;;13.79;100.00;98546.09;5032701;28;20508;-75
2021/05/29 09:19:57;;;;;;;15.98;7.15;;;;;;;14.79;100.00;98537.72;4965410;28;20944;-75
2021/05/29 09:22:33;;;;;;;14.38;6.25;;;;;;;14.92;100.00;98539.50;4967258;28;20069;-76
2021/05/29 09:25:04;;;;;;;14.20;6.93;;;;;;;15.31;100.00;98537.72;5039371;28;20049;-76
2021/05/29 09:27:57;;;;;;;9.73;5.78;;;;;;;15.91;100.00;98541.13;5029966;28;20045;-75
2021/05/29 09:30:37;;;;;;;12.45;5.63;;;;;;;15.94;100.00;98539.66;4998342;28;20131;-76
2021/05/29 09:33:27;;;;;;;12.20;5.38;;;;;;;15.71;100.00;98535.56;5047010;28;20045;-74
2021/05/29 09:36:15;;;;;;;15.40;8.20;;;;;;;16.83;100.00;98531.94;5046737;28;20045;-75
2021/05/29 09:38:47;;;;;;;14.45;5.18;;;;;;;17.63;100.00;98528.94;5046563;28;20045;-73
2021/05/29 09:41:18;;;;;;;12.25;3.90;;;;;;;18.12;100.00;98527.09;5029284;28;20223;-76
2021/05/29 09:44:00;;;;;;;9.55;3.60;;;;;;;18.81;100.00;98524.19;5046498;28;20049;-76
2021/05/29 09:46:28;;;;;;;8.40;3.47;;;;;;;18.69;100.00;98519.53;5012554;28;20047;-76
2021/05/29 09:48:54;;;;;;;9.45;3.53;;;;;;;18.86;100.00;98521.22;5047608;28;20048;-76
2021/05/29 09:51:21;;;;;;;7.68;4.00;;;;;;;18.14;100.00;98511.91;5029062;28;20106;-76
2021/05/29 09:53:50;;;;;;;12.38;4.00;;;;;;;17.52;100.00;98514.09;5046548;28;20105;-74
2021/05/29 09:56:31;;;;;;;8.95;3.92;;;;;;;16.63;100.00;98510.84;5029195;28;20393;-74
2021/05/29 09:59:06;;;;;;;14.40;4.90;;;;;;;15.90;100.00;98504.00;5029988;28;20325;-79
2021/05/29 10:01:43;;;;;;;10.65;4.13;;;;;;;17.97;100.00;98499.22;5033046;28;20531;-79
2021/05/29 10:04:16;;;;;;;11.95;4.30;;;;;;;18.23;100.00;98498.06;5033370;28;20148;-75
2021/05/29 10:07:01;;;;;;;10.23;4.18;;;;;;;18.66;100.00;98495.53;5053323;28;20051;-78
2021/05/29 10:09:28;;;;;;;8.40;3.85;;;;;;;19.18;79.18;98493.53;5051894;28;20045;-75
2021/05/29 10:11:57;;;;;;;6.70;3.50;;;;;;;19.21;85.32;98492.81;5033121;28;20888;-78
2021/05/29 10:14:23;;;;;;;6.53;3.60;;;;;;;18.34;100.00;98483.56;5027868;28;20047;-77
2021/05/29 10:16:50;;;;;;;7.10;2.80;;;;;;;17.25;100.00;98490.84;4958557;28;20112;-74
2021/05/29 10:19:21;;;;;;;7.38;3.28;;;;;;;17.35;100.00;98501.38;4949946;29;20288;-78
2021/05/29 10:21:49;;;;;;;5.63;2.97;;;;;;;20.21;69.41;98497.00;5031690;28;20052;-76
2021/05/29 10:24:17;;;;;;;8.38;2.92;;;;;;;20.47;59.49;98493.69;5050451;28;20053;-77
2021/05/29 10:26:45;;;;;;;5.05;2.55;;;;;;;20.05;60.37;98489.94;5050292;28;20056;-78
2021/05/29 10:29:12;;;;;;;5.65;2.70;;;;;;;20.60;55.10;98486.13;5048414;28;20052;-77
2021/05/29 10:31:41;;;;;;;5.18;2.70;;;;;;;18.46;63.70;98483.53;5048928;28;20052;-78
2021/05/29 10:34:09;;;;;;;6.00;2.90;;;;;;;17.45;88.50;98485.31;5050047;28;20045;-76
2021/05/29 10:36:44;;;;;;;7.20;3.22;;;;;;;16.61;100.00;98484.97;5032309;28;20134;-77
2021/05/29 10:39:22;;;;;;;6.25;3.50;;;;;;;16.19;100.00;98492.28;5032933;28;20053;-77
2021/05/29 10:41:55;;;;;;;6.25;3.45;;;;;;;17.12;100.00;98473.59;4993915;28;20043;-75
2021/05/29 10:44:32;;;;;;;7.97;3.33;;;;;;;20.02;75.44;98491.44;5042910;28;20084;-79
2021/05/29 10:47:15;;;;;;;5.60;3.63;;;;;;;21.07;63.58;98482.06;5039598;28;20124;-75
2021/05/29 10:49:49;;;;;;;5.97;3.50;;;;;;;19.12;69.17;98483.16;4973591;28;20145;-74
2021/05/29 10:52:35;;;;;;;9.20;3.33;;;;;;;18.24;93.42;98470.34;5037933;28;20053;-76
2021/05/29 10:55:11;;;;;;;7.03;3.38;;;;;;;18.15;90.42;98477.06;4971254;28;20058;-78
2021/05/29 10:57:54;;;;;;;;;;;;;;;20.62;69.65;98478.31;4972075;28;20061;-76
2021/05/29 11:00:39;;;;;;;6.40;3.15;;;;;;;23.35;49.79;98466.75;4969497;28;20676;-76
2021/05/29 11:03:26;;;;;;;6.25;3.60;;;;;;;23.27;52.35;98465.06;5039138;28;20047;-78
2021/05/29 11:05:55;;;;;;;8.63;3.97;;;;;;;19.95;67.87;98480.25;4971839;28;20039;-77
2021/05/29 11:08:44;;;;;;;8.55;4.60;;;;;;;17.94;100.00;98477.97;5021454;28;20866;-77
2021/05/29 11:14:21;;;;;;;11.00;5.07;;;;;;;16.68;100.00;98475.09;4936367;28;20054;-74
2021/05/29 11:16:55;;;;;;;9.43;4.68;;;;;;;16.29;100.00;98480.16;5004572;28;20065;-78
2021/05/29 11:19:31;;;;;;;7.80;4.55;;;;;;;16.68;100.00;98472.38;4943750;29;20048;-77
2021/05/29 11:22:08;;;;;;;9.57;3.83;;;;;;;19.13;96.57;98466.31;4945021;28;20051;-75
2021/05/29 11:24:38;;;;;;;7.10;3.40;;;;;;;20.54;72.31;98473.81;5005678;28;20050;-79
2021/05/29 11:27:13;;;;;;;6.18;2.92;;;;;;;22.17;52.90;98473.81;5003696;28;20055;-77
2021/05/29 11:30:10;;;;;;;5.43;2.75;;;;;;;23.41;48.44;98470.78;4937266;28;20056;-75
2021/05/29 11:35:36;;;;;;;5.50;2.45;;;;;;;22.53;45.27;98460.56;4960414;28;20111;-74
2021/05/29 11:38:32;;;;;;;5.45;3.00;;;;;;;20.50;53.35;98459.97;5024092;28;20070;-74
2021/05/29 11:41:08;;;;;;;6.40;2.55;;;;;;;20.03;61.32;98456.50;5042592;28;20050;-77
2021/05/29 11:43:41;;;;;;;7.78;3.40;;;;;;;17.50;100.00;98467.09;5037018;28;20055;-77
2021/05/29 11:46:14;;;;;;;7.50;3.38;;;;;;;15.91;100.00;98470.13;4968389;28;20569;-76
2021/05/29 11:48:44;;;;;;;6.25;3.40;;;;;;;15.20;100.00;98471.00;4967647;28;20073;-75
2021/05/29 11:51:15;;;;;;;10.73;5.32;;;;;;;14.52;100.00;98472.63;5035350;28;20054;-77
2021/05/29 11:53:53;;;;;;;12.82;5.38;;;;;;;13.81;100.00;98484.00;5035402;28;20054;-76
2021/05/29 11:56:21;;;;;;;11.38;6.13;;;;;;;13.64;100.00;98482.00;4969761;28;20054;-76
2021/05/29 11:58:51;;;;;;;17.70;7.10;;;;;;;13.48;100.00;98484.31;4966740;28;20067;-77
2021/05/29 12:01:20;;;;;;;15.65;6.78;;;;;;;13.55;100.00;98479.22;4967049;28;20491;-77
2021/05/29 12:03:50;;;;;;;14.35;6.85;;;;;;;13.70;100.00;98478.81;4967205;28;20544;-75